createdAt,value
2022-10-03T00:06:10.924Z,43.93
2022-10-03T00:15:53.849Z,42.59
2022-10-03T00:20:05.364Z,42.21
2022-10-03T00:24:42.169Z,42.29
2022-10-03T00:29:20.451Z,42.17
2022-10-03T00:49:53.751Z,42.39
2022-10-03T01:39:05.389Z,42.36
2022-10-03T02:10:47.521Z,41.94
2022-10-03T02:14:02.545Z,41.77
2022-10-03T02:32:16.478Z,41.50
2022-10-03T02:39:32.512Z,41.34
2022-10-03T02:43:16.678Z,41.13
2022-10-03T02:46:41.702Z,41.26
2022-10-03T02:55:09.823Z,41.90
2022-10-03T02:59:21.517Z,41.85
2022-10-03T03:02:43.141Z,42.09
2022-10-03T03:10:32.941Z,41.87
2022-10-03T03:14:21.675Z,41.72
2022-10-03T03:26:00.249Z,41.78
2022-10-03T03:30:01.440Z,42.59
2022-10-03T03:34:16.476Z,42.31
2022-10-03T03:37:51.243Z,42.15
2022-10-03T03:45:36.000Z,42.40
2022-10-03T03:49:17.514Z,42.98
2022-10-03T03:52:48.756Z,42.57
2022-10-03T03:59:44.159Z,42.37
2022-10-03T04:03:14.710Z,42.26
2022-10-03T04:06:32.947Z,42.24
2022-10-03T04:09:57.146Z,42.22
2022-10-03T04:13:17.508Z,42.20
2022-10-03T04:20:52.798Z,42.31
2022-10-03T04:24:40.633Z,42.77
2022-10-03T04:28:45.467Z,42.72
2022-10-03T04:32:24.525Z,42.86
2022-10-03T04:36:47.640Z,43.21
2022-10-03T04:44:24.368Z,43.39
2022-10-03T04:52:01.547Z,42.71
2022-10-03T04:56:11.440Z,42.69
2022-10-03T04:59:47.150Z,42.49
2022-10-03T05:07:33.212Z,42.60
2022-10-03T05:11:21.153Z,42.30
2022-10-03T05:14:49.380Z,42.50
2022-10-03T05:18:15.499Z,42.13
2022-10-03T05:21:44.024Z,42.18
2022-10-03T05:25:13.393Z,42.16
2022-10-03T05:54:55.407Z,43.43
2022-10-03T06:45:57.544Z,42.21
2022-10-03T06:56:19.216Z,42.54
2022-10-03T07:53:15.595Z,40.41
2022-10-03T07:57:15.394Z,40.37
2022-10-03T08:00:45.147Z,40.43
2022-10-03T08:04:41.641Z,40.77
2022-10-03T08:09:13.230Z,40.36
2022-10-03T08:12:11.531Z,40.18
2022-10-03T08:16:25.289Z,39.83
2022-10-03T08:19:44.010Z,41.05
2022-10-03T08:37:32.637Z,40.23
2022-10-03T08:41:46.551Z,39.57
2022-10-03T08:51:08.470Z,38.98
2022-10-03T09:15:28.604Z,38.79
2022-10-03T09:36:01.264Z,39.96
2022-10-03T09:40:44.289Z,38.53
2022-10-03T09:56:19.232Z,38.67
2022-10-03T10:11:03.988Z,37.79
2022-10-03T10:16:19.449Z,37.90
2022-10-03T10:20:16.193Z,37.65
2022-10-03T10:24:02.950Z,37.51
2022-10-03T10:28:25.878Z,37.42
2022-10-03T11:10:37.717Z,37.53
2022-10-03T11:20:35.419Z,37.64
2022-10-03T11:37:49.809Z,37.41
2022-10-03T11:42:26.397Z,39.19
2022-10-03T11:45:53.943Z,37.77
2022-10-03T11:49:44.043Z,37.67
2022-10-03T11:57:36.186Z,37.56
2022-10-03T12:00:52.949Z,37.71
2022-10-03T12:04:35.829Z,37.94
2022-10-03T12:18:58.095Z,41.28
2022-10-03T12:22:23.152Z,41.30
2022-10-03T12:25:53.799Z,41.40
2022-10-03T12:30:14.135Z,41.93
2022-10-03T12:33:29.733Z,40.59
2022-10-03T12:40:58.173Z,39.01
2022-10-03T12:45:19.367Z,38.55
2022-10-03T12:49:04.855Z,39.40
2022-10-03T12:52:46.188Z,39.96
2022-10-03T12:56:41.525Z,38.50
2022-10-03T13:00:03.684Z,38.50
2022-10-03T13:07:51.492Z,40.04
2022-10-03T13:11:41.539Z,40.64
2022-10-03T13:15:45.264Z,41.13
2022-10-03T13:19:06.444Z,39.78
2022-10-03T13:23:13.178Z,40.74
2022-10-03T13:26:45.549Z,39.79
2022-10-03T13:29:56.612Z,38.27
2022-10-03T13:37:00.787Z,38.07
2022-10-03T13:40:43.699Z,38.14
2022-10-03T13:44:06.403Z,38.10
2022-10-03T13:47:24.450Z,38.23
2022-10-03T13:50:50.328Z,38.37
2022-10-03T13:54:34.070Z,38.53
2022-10-03T13:58:02.614Z,38.64
2022-10-03T14:02:01.772Z,40.74
2022-10-03T14:06:02.262Z,41.67
2022-10-03T14:09:41.315Z,41.44
2022-10-03T14:13:05.709Z,39.97
2022-10-03T14:16:40.834Z,40.15
2022-10-03T14:20:23.908Z,40.82
2022-10-03T14:24:25.361Z,42.08
2022-10-03T14:28:17.174Z,42.43
2022-10-03T14:31:23.842Z,40.66
2022-10-03T14:34:53.787Z,41.53
2022-10-03T14:38:59.989Z,41.98
2022-10-03T14:42:53.873Z,40.82
2022-10-03T14:46:16.979Z,40.27
2022-10-03T14:53:30.327Z,40.89
2022-10-03T15:00:44.177Z,40.49
2022-10-03T15:04:26.406Z,40.40
2022-10-03T15:09:13.214Z,41.17
2022-10-03T15:12:57.932Z,39.80
2022-10-03T15:16:49.311Z,40.38
2022-10-03T15:20:15.244Z,40.23
2022-10-03T15:24:02.007Z,39.31
2022-10-03T15:28:26.350Z,39.70
2022-10-03T15:34:08.699Z,39.77
2022-10-03T15:38:44.649Z,41.27
2022-10-03T15:43:01.673Z,39.81
2022-10-03T15:47:12.801Z,39.43
2022-10-03T15:50:51.436Z,39.19
2022-10-03T15:53:57.013Z,38.89
2022-10-03T15:57:20.858Z,38.87
2022-10-03T16:16:47.332Z,39.56
2022-10-03T16:20:33.766Z,39.72
2022-10-03T16:23:57.769Z,39.53
2022-10-03T16:27:21.480Z,39.44
2022-10-03T16:30:40.313Z,39.43
2022-10-03T16:33:57.921Z,39.59
2022-10-03T16:37:11.860Z,39.65
2022-10-03T16:40:25.978Z,39.81
2022-10-03T16:43:33.354Z,40.13
2022-10-03T16:47:02.283Z,40.35
2022-10-03T16:50:33.659Z,39.93
2022-10-03T16:53:38.864Z,39.60
2022-10-03T16:57:33.808Z,40.19
2022-10-03T17:01:28.198Z,40.05
2022-10-03T17:05:01.376Z,41.10
2022-10-03T17:08:40.111Z,41.01
2022-10-03T17:11:48.648Z,39.78
2022-10-03T17:14:57.579Z,39.58
2022-10-03T17:18:12.636Z,39.44
2022-10-03T17:21:49.431Z,40.03
2022-10-03T17:25:06.073Z,40.08
2022-10-03T17:32:11.451Z,40.67
2022-10-03T17:35:32.434Z,40.60
2022-10-03T17:38:57.366Z,40.43
2022-10-03T17:42:38.107Z,40.32
2022-10-03T17:45:57.722Z,40.04
2022-10-03T17:49:41.623Z,40.05
2022-10-03T17:52:49.610Z,39.97
2022-10-03T17:56:03.681Z,40.04
2022-10-03T17:59:21.798Z,40.16
2022-10-03T18:03:25.193Z,40.33
2022-10-03T18:06:55.780Z,40.23
2022-10-03T18:10:13.144Z,39.95
2022-10-03T18:19:32.343Z,40.13
2022-10-03T18:23:05.551Z,40.70
2022-10-03T18:26:53.160Z,41.32
2022-10-03T18:39:33.365Z,41.36
2022-10-03T18:42:49.180Z,41.13
2022-10-03T18:46:44.325Z,40.85
2022-10-03T18:51:06.365Z,40.27
2022-10-03T18:54:17.635Z,42.18
2022-10-03T19:04:01.514Z,40.53
2022-10-03T19:13:20.688Z,40.32
2022-10-03T19:44:07.252Z,39.50
2022-10-03T19:47:49.317Z,39.57
2022-10-03T19:50:56.906Z,39.20
2022-10-03T19:54:02.787Z,38.96
2022-10-03T19:57:14.351Z,38.91
2022-10-03T20:00:49.395Z,38.94
2022-10-03T20:04:10.346Z,40.32
2022-10-03T20:07:30.157Z,39.19
2022-10-03T20:10:49.846Z,39.30
2022-10-03T20:14:41.901Z,39.52
2022-10-03T20:17:49.989Z,39.20
2022-10-03T20:21:26.723Z,39.29
2022-10-03T20:24:54.132Z,39.34
2022-10-03T20:28:06.244Z,39.46
2022-10-03T20:31:14.196Z,39.31
2022-10-03T20:34:25.475Z,39.33
2022-10-03T20:38:09.817Z,39.60
2022-10-03T20:41:46.270Z,39.88
2022-10-03T20:45:26.048Z,39.40
2022-10-03T20:48:33.270Z,39.24
2022-10-03T20:52:22.033Z,40.22
2022-10-03T20:55:54.217Z,39.64
2022-10-03T21:04:39.591Z,40.09
2022-10-03T21:08:26.210Z,40.00
2022-10-03T21:12:01.860Z,39.77
2022-10-03T21:15:32.509Z,39.57
2022-10-03T21:19:02.157Z,39.92
2022-10-03T21:22:31.760Z,40.71
2022-10-03T21:26:01.980Z,39.57
2022-10-03T21:29:54.037Z,41.14
2022-10-03T21:33:41.943Z,39.92
2022-10-03T21:37:12.960Z,39.65
2022-10-03T21:40:56.553Z,41.57
2022-10-03T21:44:46.003Z,39.83
2022-10-03T22:38:24.271Z,38.93
2022-10-03T22:58:28.841Z,38.82
2022-10-03T23:06:30.232Z,38.73
2022-10-03T23:09:55.629Z,38.70
2022-10-03T23:13:56.705Z,38.59
2022-10-03T23:18:00.172Z,38.85
2022-10-03T23:40:13.755Z,38.53
2022-10-03T23:43:57.775Z,38.59
2022-10-03T23:47:31.915Z,38.69
2022-10-03T23:51:10.636Z,38.83
2022-10-03T23:54:38.040Z,38.92
2022-10-03T23:58:24.484Z,38.66
